Time;durP1;ratioP1;P1;durP2;ratioP2;P2;SDS_P1;SDS_P2;PMS_P1;PMS_P2;Temp;Humidity;BMP_temperature;BMP_pressure;BME280_temperature;BME280_humidity;BME280_pressure;Samples;Min_cycle;Max_cycle;Signal;HPM_P1;HPM_P2
2021/11/13 00:00:18;;;;;;;;;27.25;25.75;;;;;;;;5103839;27;10348;-80
2021/11/13 00:02:46;;;;;;;;;18.75;18.50;;;;;;;;5100211;28;11251;-79
2021/11/13 00:05:13;;;;;;;;;25.50;25.00;;;;;;;;5103214;28;10458;-80
2021/11/13 00:07:40;;;;;;;;;23.00;21.75;;;;;;;;5092449;28;11337;-80
2021/11/13 00:10:10;;;;;;;;;20.75;19.25;;;;;;;;5080523;28;10237;-80
2021/11/13 00:12:38;;;;;;;;;27.75;25.00;;;;;;;;5104540;28;10248;-80
2021/11/13 00:15:09;;;;;;;;;20.00;20.00;;;;;;;;5103680;28;10560;-80
2021/11/13 00:17:37;;;;;;;;;29.75;25.25;;;;;;;;5087845;28;10352;-80
2021/11/13 00:20:05;;;;;;;;;21.75;20.00;;;;;;;;5092780;28;10414;-80
2021/11/13 00:22:32;;;;;;;;;23.50;21.25;;;;;;;;5103038;28;10411;-80
2021/11/13 00:25:00;;;;;;;;;31.50;28.00;;;;;;;;5104365;28;10353;-80
2021/11/13 00:27:30;;;;;;;;;10.75;8.00;;;;;;;;5090748;28;10283;-80
2021/11/13 00:29:57;;;;;;;;;30.00;30.00;;;;;;;;5104197;28;10345;-80
2021/11/13 00:32:25;;;;;;;;;27.75;24.50;;;;;;;;5102154;27;10335;-80
2021/11/13 00:34:52;;;;;;;;;27.00;27.00;;;;;;;;5093902;28;10465;-79
2021/11/13 00:37:19;;;;;;;;;26.50;21.25;;;;;;;;5099534;28;10203;-80
2021/11/13 00:39:46;;;;;;;;;30.00;27.50;;;;;;;;5093055;28;10222;-80
2021/11/13 00:42:14;;;;;;;;;24.50;21.25;;;;;;;;5089054;28;10188;-80
2021/11/13 00:44:43;;;;;;;;;28.75;25.50;;;;;;;;5093259;28;10301;-79
2021/11/13 00:47:10;;;;;;;;;26.25;21.50;;;;;;;;5104147;28;10214;-79
2021/11/13 00:49:37;;;;;;;;;23.25;19.75;;;;;;;;5093094;28;10298;-82
2021/11/13 00:52:06;;;;;;;;;19.00;18.50;;;;;;;;5089593;28;10087;-79
2021/11/13 00:54:34;;;;;;;;;24.25;23.25;;;;;;;;5103897;27;10259;-79
2021/11/13 00:57:01;;;;;;;;;30.50;27.25;;;;;;;;5103183;28;11059;-79
2021/11/13 00:59:30;;;;;;;;;21.00;21.00;;;;;;;;5104423;28;10513;-80
2021/11/13 01:01:59;;;;;;;;;27.50;22.50;;;;;;;;5085397;28;10328;-80
2021/11/13 01:04:27;;;;;;;;;25.00;23.75;;;;;;;;5104095;28;10238;-80
2021/11/13 01:06:54;;;;;;;;;25.25;22.50;;;;;;;;5102757;28;10342;-80
2021/11/13 01:09:21;;;;;;;;;29.25;24.00;;;;;;;;5104210;28;10179;-79
2021/11/13 01:11:49;;;;;;;;;23.50;20.50;;;;;;;;5103503;28;11141;-80
2021/11/13 01:14:17;;;;;;;;;25.50;22.75;;;;;;;;5103227;28;10329;-79
2021/11/13 01:16:44;;;;;;;;;31.00;26.00;;;;;;;;5103919;28;10224;-80
2021/11/13 01:19:13;;;;;;;;;22.75;20.50;;;;;;;;5079617;28;10261;-80
2021/11/13 01:21:40;;;;;;;;;23.25;21.00;;;;;;;;5103846;28;10160;-80
2021/11/13 01:24:08;;;;;;;;;18.75;15.75;;;;;;;;5102140;28;10069;-80
2021/11/13 01:26:35;;;;;;;;;25.75;23.75;;;;;;;;5096590;28;10208;-78
2021/11/13 01:29:04;;;;;;;;;17.75;15.50;;;;;;;;5098937;28;10126;-79
2021/11/13 01:31:31;;;;;;;;;16.75;16.75;;;;;;;;5105355;27;9970;-80
2021/11/13 01:33:59;;;;;;;;;16.25;16.25;;;;;;;;5106534;28;10087;-80
2021/11/13 01:36:27;;;;;;;;;26.50;23.25;;;;;;;;5096374;28;10029;-80
2021/11/13 01:38:55;;;;;;;;;19.50;19.50;;;;;;;;5100965;28;10238;-80
2021/11/13 01:41:23;;;;;;;;;20.00;20.00;;;;;;;;5098171;28;10112;-80
2021/11/13 01:43:51;;;;;;;;;19.50;19.50;;;;;;;;5091364;28;10087;-80
2021/11/13 01:46:20;;;;;;;;;17.00;17.00;;;;;;;;5106142;28;10038;-80
2021/11/13 01:48:47;;;;;;;;;19.00;17.50;;;;;;;;5104130;28;9944;-80
2021/11/13 01:51:17;;;;;;;;;17.00;16.50;;;;;;;;5086495;28;10031;-79
2021/11/13 01:53:47;;;;;;;;;16.25;14.25;;;;;;;;5105525;28;10094;-80
2021/11/13 01:56:17;;;;;;;;;20.25;16.50;;;;;;;;5107029;28;9863;-80
2021/11/13 01:58:46;;;;;;;;;20.50;16.25;;;;;;;;5105776;28;9877;-80
2021/11/13 02:01:13;;;;;;;;;13.00;13.00;;;;;;;;5102137;27;9942;-80
2021/11/13 02:03:40;;;;;;;;;17.75;14.25;;;;;;;;5106291;28;9878;-80
2021/11/13 02:06:08;;;;;;;;;19.50;16.50;;;;;;;;5106763;28;10658;-79
2021/11/13 02:08:35;;;;;;;;;17.50;15.00;;;;;;;;5100907;28;9702;-80
2021/11/13 02:11:04;;;;;;;;;14.00;12.00;;;;;;;;5101220;28;9996;-80
2021/11/13 02:13:32;;;;;;;;;15.00;14.00;;;;;;;;5106972;28;9748;-80
2021/11/13 02:15:59;;;;;;;;;14.25;12.25;;;;;;;;5105194;28;9736;-80
2021/11/13 02:18:26;;;;;;;;;12.75;12.25;;;;;;;;5105939;28;9718;-80
2021/11/13 02:20:55;;;;;;;;;13.50;13.00;;;;;;;;5091129;28;9652;-80
2021/11/13 02:23:24;;;;;;;;;13.25;12.25;;;;;;;;5106313;27;9839;-80
2021/11/13 02:25:53;;;;;;;;;15.50;14.00;;;;;;;;5101790;28;9808;-80
2021/11/13 02:28:23;;;;;;;;;11.25;9.50;;;;;;;;5077258;28;9621;-79
2021/11/13 02:30:53;;;;;;;;;10.50;9.00;;;;;;;;5081623;28;9685;-80
2021/11/13 02:33:20;;;;;;;;;20.00;13.75;;;;;;;;5103970;28;10188;-80
2021/11/13 02:35:49;;;;;;;;;13.00;11.25;;;;;;;;5106493;28;10930;-80
2021/11/13 02:38:19;;;;;;;;;12.50;12.50;;;;;;;;5105478;28;9794;-80
2021/11/13 02:40:51;;;;;;;;;10.25;8.75;;;;;;;;5102852;28;10596;-81
2021/11/13 02:43:18;;;;;;;;;9.75;9.25;;;;;;;;5086228;28;9694;-80
2021/11/13 02:45:46;;;;;;;;;16.00;8.50;;;;;;;;5077903;28;9786;-80
2021/11/13 02:48:15;;;;;;;;;10.75;9.50;;;;;;;;5084898;28;10351;-80
2021/11/13 02:50:43;;;;;;;;;8.75;8.75;;;;;;;;5084752;28;9674;-80
2021/11/13 02:53:18;;;;;;;;;13.75;8.50;;;;;;;;5086061;28;10407;-80
2021/11/13 02:55:46;;;;;;;;;13.00;8.75;;;;;;;;5084379;28;9945;-80
2021/11/13 02:58:13;;;;;;;;;10.00;8.25;;;;;;;;5085212;28;9584;-79
2021/11/13 03:00:44;;;;;;;;;9.75;9.75;;;;;;;;5094004;27;9440;-80
2021/11/13 03:03:16;;;;;;;;;11.00;9.00;;;;;;;;5098185;28;9544;-80
2021/11/13 03:05:48;;;;;;;;;9.00;9.00;;;;;;;;5085320;28;9636;-80
2021/11/13 03:08:22;;;;;;;;;10.75;8.25;;;;;;;;5084069;28;9629;-80
2021/11/13 03:10:50;;;;;;;;;10.50;9.00;;;;;;;;5072159;28;9642;-80
2021/11/13 03:13:17;;;;;;;;;8.25;6.75;;;;;;;;5078774;28;10419;-80
2021/11/13 03:15:45;;;;;;;;;8.75;8.75;;;;;;;;5104835;28;9494;-81
2021/11/13 03:18:12;;;;;;;;;8.25;7.50;;;;;;;;5092347;28;9567;-80
2021/11/13 03:20:39;;;;;;;;;9.50;7.50;;;;;;;;5070218;28;9536;-80
2021/11/13 03:23:07;;;;;;;;;10.00;6.75;;;;;;;;5085024;28;9475;-81
2021/11/13 03:25:37;;;;;;;;;12.00;8.00;;;;;;;;5083682;28;9564;-81
2021/11/13 03:28:07;;;;;;;;;6.75;6.75;;;;;;;;5085634;28;9470;-80
2021/11/13 03:30:35;;;;;;;;;7.00;7.00;;;;;;;;5083502;28;9421;-81
2021/11/13 03:33:02;;;;;;;;;7.50;4.00;;;;;;;;5084813;28;9695;-81
2021/11/13 03:35:31;;;;;;;;;7.50;6.00;;;;;;;;5099209;28;9536;-80
2021/11/13 03:38:00;;;;;;;;;6.75;6.75;;;;;;;;5101866;28;9554;-80
2021/11/13 03:40:28;;;;;;;;;8.25;6.75;;;;;;;;5086279;28;9688;-80
2021/11/13 03:42:57;;;;;;;;;5.75;4.00;;;;;;;;5085288;28;9479;-80
2021/11/13 03:45:25;;;;;;;;;6.75;4.00;;;;;;;;5091536;28;9566;-80
2021/11/13 03:47:53;;;;;;;;;7.25;4.75;;;;;;;;5103354;28;9495;-80
2021/11/13 03:50:20;;;;;;;;;7.33;5.67;;;;;;;;5088417;28;9381;-80
2021/11/13 03:52:47;;;;;;;;;10.00;5.75;;;;;;;;5095633;28;9379;-80
2021/11/13 03:55:15;;;;;;;;;4.00;4.00;;;;;;;;5103233;28;9544;-80
2021/11/13 03:57:42;;;;;;;;;4.00;4.00;;;;;;;;5104789;28;9484;-80
2021/11/13 04:00:12;;;;;;;;;2.00;2.00;;;;;;;;5102845;27;9438;-80
2021/11/13 04:02:43;;;;;;;;;7.25;6.50;;;;;;;;5099937;28;9447;-80
2021/11/13 04:05:11;;;;;;;;;4.00;4.00;;;;;;;;5103786;28;9621;-80
2021/11/13 04:07:39;;;;;;;;;6.50;6.50;;;;;;;;5097590;28;9478;-80
2021/11/13 04:10:08;;;;;;;;;4.67;4.67;;;;;;;;5103870;28;9505;-80
2021/11/13 04:12:36;;;;;;;;;5.33;5.33;;;;;;;;5103710;28;9444;-80
2021/11/13 04:15:05;;;;;;;;;5.50;5.50;;;;;;;;5103164;28;9337;-78
2021/11/13 04:17:34;;;;;;;;;4.00;4.00;;;;;;;;5103739;28;9457;-78
2021/11/13 04:20:01;;;;;;;;;3.33;2.00;;;;;;;;5103919;28;9418;-78
2021/11/13 04:22:28;;;;;;;;;4.67;3.00;;;;;;;;5103479;28;9433;-78
2021/11/13 04:24:56;;;;;;;;;7.00;5.00;;;;;;;;5095598;28;9464;-78
2021/11/13 04:27:23;;;;;;;;;4.50;4.50;;;;;;;;5098918;28;9568;-79
2021/11/13 04:29:51;;;;;;;;;6.50;3.75;;;;;;;;5103658;28;9535;-79
2021/11/13 04:32:18;;;;;;;;;3.75;3.75;;;;;;;;5088191;27;9494;-78
2021/11/13 04:34:51;;;;;;;;;6.25;4.25;;;;;;;;5082563;28;10844;-79
2021/11/13 04:37:19;;;;;;;;;9.50;6.00;;;;;;;;5084149;28;9560;-78
2021/11/13 04:39:47;;;;;;;;;7.00;5.00;;;;;;;;5093546;28;9636;-78
2021/11/13 04:42:15;;;;;;;;;4.00;4.00;;;;;;;;5096179;28;9677;-78
2021/11/13 04:44:42;;;;;;;;;9.25;7.00;;;;;;;;5103034;28;9711;-78
2021/11/13 04:47:10;;;;;;;;;6.75;5.50;;;;;;;;5103814;28;9716;-78
2021/11/13 04:49:37;;;;;;;;;6.25;3.50;;;;;;;;5092007;28;9488;-78
2021/11/13 04:52:08;;;;;;;;;4.25;4.25;;;;;;;;5082482;28;9618;-78
2021/11/13 04:54:36;;;;;;;;;7.00;7.00;;;;;;;;5084082;28;9602;-78
2021/11/13 04:57:04;;;;;;;;;7.00;5.00;;;;;;;;5089768;28;9716;-77
2021/11/13 04:59:32;;;;;;;;;6.00;6.00;;;;;;;;5090309;28;9746;-78
2021/11/13 05:02:00;;;;;;;;;7.00;4.25;;;;;;;;5112803;27;9662;-78
2021/11/13 05:04:27;;;;;;;;;5.00;3.00;;;;;;;;5084137;28;10391;-78
2021/11/13 05:06:55;;;;;;;;;3.00;3.00;;;;;;;;5087609;28;9717;-78
2021/11/13 05:09:24;;;;;;;;;6.75;6.00;;;;;;;;5086411;28;9590;-78
2021/11/13 05:11:51;;;;;;;;;2.50;2.50;;;;;;;;5087403;28;10505;-78
2021/11/13 05:14:18;;;;;;;;;6.25;5.25;;;;;;;;5085422;28;9529;-78
2021/11/13 05:16:45;;;;;;;;;3.00;3.00;;;;;;;;5095507;28;9616;-78
2021/11/13 05:19:13;;;;;;;;;4.25;2.50;;;;;;;;5107092;28;9557;-78
2021/11/13 05:21:40;;;;;;;;;3.25;3.25;;;;;;;;5107592;28;9598;-77
2021/11/13 05:24:08;;;;;;;;;2.00;2.00;;;;;;;;5107604;28;9620;-78
2021/11/13 05:26:36;;;;;;;;;7.00;4.00;;;;;;;;5106869;28;9566;-78
2021/11/13 05:29:04;;;;;;;;;8.25;3.25;;;;;;;;5107959;28;9523;-78
2021/11/13 05:31:34;;;;;;;;;3.25;3.00;;;;;;;;5105974;27;9480;-78
2021/11/13 05:34:01;;;;;;;;;3.00;2.00;;;;;;;;5105928;28;9521;-78
2021/11/13 05:36:28;;;;;;;;;5.67;3.33;;;;;;;;5106151;28;9546;-78
2021/11/13 05:38:56;;;;;;;;;3.00;2.00;;;;;;;;5098534;28;9541;-78
2021/11/13 05:41:23;;;;;;;;;5.25;3.50;;;;;;;;5106969;28;9465;-78
2021/11/13 05:43:52;;;;;;;;;7.00;4.00;;;;;;;;5105476;28;9581;-78
2021/11/13 05:46:19;;;;;;;;;5.00;3.25;;;;;;;;5107139;28;9566;-78
2021/11/13 05:48:47;;;;;;;;;2.00;2.00;;;;;;;;5104248;28;9556;-78
2021/11/13 05:51:14;;;;;;;;;6.00;3.50;;;;;;;;5086818;28;9533;-78
2021/11/13 05:53:41;;;;;;;;;3.00;3.00;;;;;;;;5104635;28;9618;-78
2021/11/13 05:56:08;;;;;;;;;5.00;3.00;;;;;;;;5079481;28;9736;-78
2021/11/13 05:58:36;;;;;;;;;6.00;4.00;;;;;;;;5086158;28;9456;-77
2021/11/13 06:01:05;;;;;;;;;3.00;2.00;;;;;;;;5085411;28;9503;-77
2021/11/13 06:03:32;;;;;;;;;2.00;2.00;;;;;;;;5106749;28;9561;-77
2021/11/13 06:05:59;;;;;;;;;4.00;2.25;;;;;;;;5103875;28;9679;-79
2021/11/13 06:08:27;;;;;;;;;2.50;2.50;;;;;;;;5106473;28;9563;-78
2021/11/13 06:10:54;;;;;;;;;1.25;1.25;;;;;;;;5105334;28;9623;-78
2021/11/13 06:13:21;;;;;;;;;2.00;2.00;;;;;;;;5107020;28;9394;-77
2021/11/13 06:15:48;;;;;;;;;2.75;2.75;;;;;;;;5105833;28;9518;-78
2021/11/13 06:18:17;;;;;;;;;4.00;2.00;;;;;;;;5106387;28;9679;-78
2021/11/13 06:20:44;;;;;;;;;1.33;1.33;;;;;;;;5105902;28;9585;-78
2021/11/13 06:23:11;;;;;;;;;2.00;2.00;;;;;;;;5084871;28;10162;-77
2021/11/13 06:25:39;;;;;;;;;2.00;2.00;;;;;;;;5099338;28;9582;-77
2021/11/13 06:28:06;;;;;;;;;2.00;2.00;;;;;;;;5105336;27;9457;-78
2021/11/13 06:30:34;;;;;;;;;6.00;3.00;;;;;;;;5104439;28;9436;-77
2021/11/13 06:33:01;;;;;;;;;2.75;2.75;;;;;;;;5104682;28;9399;-78
2021/11/13 06:35:30;;;;;;;;;3.00;2.00;;;;;;;;5105891;28;9615;-78
2021/11/13 06:37:57;;;;;;;;;2.75;2.00;;;;;;;;5104197;28;9414;-77
2021/11/13 06:40:25;;;;;;;;;3.00;3.00;;;;;;;;5097773;28;9491;-78
2021/11/13 06:42:52;;;;;;;;;3.00;1.00;;;;;;;;5106399;28;9478;-78
2021/11/13 06:45:20;;;;;;;;;6.50;2.75;;;;;;;;5104241;28;10585;-78
2021/11/13 06:47:47;;;;;;;;;2.50;2.50;;;;;;;;5122534;27;9565;-78
2021/11/13 06:50:15;;;;;;;;;4.25;2.25;;;;;;;;5089783;28;9476;-77
2021/11/13 06:52:43;;;;;;;;;1.25;1.25;;;;;;;;5096091;28;9536;-82
2021/11/13 06:55:12;;;;;;;;;2.00;2.00;;;;;;;;5101064;28;9454;-80
2021/11/13 06:57:40;;;;;;;;;5.33;3.00;;;;;;;;5084841;28;9529;-80
2021/11/13 07:00:10;;;;;;;;;3.25;3.25;;;;;;;;5103332;27;9319;-78
2021/11/13 07:02:37;;;;;;;;;4.00;3.25;;;;;;;;5099130;28;9552;-77
2021/11/13 07:05:05;;;;;;;;;6.75;6.75;;;;;;;;5105877;28;9584;-78
2021/11/13 07:07:33;;;;;;;;;6.75;3.75;;;;;;;;5078526;28;9718;-78
2021/11/13 07:10:03;;;;;;;;;7.50;6.25;;;;;;;;5084728;28;9636;-78
2021/11/13 07:12:30;;;;;;;;;4.00;4.00;;;;;;;;5083837;28;9623;-78
2021/11/13 07:14:58;;;;;;;;;3.25;3.25;;;;;;;;5091063;28;9773;-79
2021/11/13 07:17:26;;;;;;;;;3.50;3.50;;;;;;;;5105643;28;9535;-77
2021/11/13 07:19:53;;;;;;;;;4.00;4.00;;;;;;;;5103059;28;9658;-77
2021/11/13 07:22:20;;;;;;;;;2.75;2.75;;;;;;;;5105442;28;9774;-77
2021/11/13 07:24:47;;;;;;;;;2.75;1.50;;;;;;;;5104206;28;9604;-78
2021/11/13 07:27:16;;;;;;;;;3.00;3.00;;;;;;;;5105333;28;9609;-78
2021/11/13 07:29:46;;;;;;;;;2.00;2.00;;;;;;;;5104617;28;9618;-78
2021/11/13 07:32:15;;;;;;;;;3.67;2.00;;;;;;;;5092774;28;9508;-78
2021/11/13 07:34:43;;;;;;;;;2.00;2.00;;;;;;;;5105178;28;9401;-77
2021/11/13 07:37:11;;;;;;;;;2.00;2.00;;;;;;;;5104486;28;9453;-77
2021/11/13 07:39:38;;;;;;;;;2.00;2.00;;;;;;;;5098478;28;9479;-78
2021/11/13 07:42:06;;;;;;;;;2.00;2.00;;;;;;;;5103943;28;10406;-80
2021/11/13 07:44:34;;;;;;;;;1.50;1.50;;;;;;;;5104651;28;9438;-80
2021/11/13 07:47:02;;;;;;;;;5.00;3.00;;;;;;;;5104400;28;9462;-79
2021/11/13 07:49:29;;;;;;;;;4.67;3.00;;;;;;;;5091855;28;9565;-80
2021/11/13 07:51:57;;;;;;;;;4.00;2.25;;;;;;;;5088976;28;9494;-78
2021/11/13 07:54:24;;;;;;;;;2.50;2.50;;;;;;;;5103758;28;9486;-77
2021/11/13 07:56:51;;;;;;;;;3.00;3.00;;;;;;;;5084626;28;9403;-78
2021/11/13 07:59:19;;;;;;;;;2.67;2.33;;;;;;;;5083319;28;9492;-77
2021/11/13 08:01:48;;;;;;;;;3.00;3.00;;;;;;;;5088980;28;9359;-77
2021/11/13 08:04:15;;;;;;;;;2.00;2.00;;;;;;;;5104122;28;9422;-77
2021/11/13 08:06:42;;;;;;;;;2.00;2.00;;;;;;;;5094217;28;9465;-81
2021/11/13 08:09:10;;;;;;;;;2.25;2.25;;;;;;;;5103505;28;10176;-78
2021/11/13 08:11:37;;;;;;;;;2.67;2.00;;;;;;;;5103808;28;9465;-78
2021/11/13 08:14:05;;;;;;;;;5.75;3.25;;;;;;;;5104930;28;9327;-80
2021/11/13 08:16:33;;;;;;;;;3.00;3.00;;;;;;;;5098539;28;9571;-78
2021/11/13 08:19:02;;;;;;;;;2.00;2.00;;;;;;;;5084800;28;9598;-78
2021/11/13 08:21:29;;;;;;;;;1.00;1.00;;;;;;;;5076896;28;9968;-78
2021/11/13 08:23:58;;;;;;;;;3.00;2.00;;;;;;;;5099701;28;9198;-77
2021/11/13 08:26:26;;;;;;;;;1.00;1.00;;;;;;;;5084074;28;9454;-79
2021/11/13 08:28:53;;;;;;;;;3.00;3.00;;;;;;;;5083251;28;10236;-77
2021/11/13 08:31:21;;;;;;;;;3.00;3.00;;;;;;;;5083407;28;10049;-78
2021/11/13 08:33:48;;;;;;;;;4.00;2.00;;;;;;;;5083008;28;9426;-77
2021/11/13 08:36:17;;;;;;;;;2.00;2.00;;;;;;;;5084332;28;9343;-80
2021/11/13 08:38:45;;;;;;;;;1.00;1.00;;;;;;;;5084667;28;10075;-80
2021/11/13 08:41:12;;;;;;;;;2.00;2.00;;;;;;;;5096991;28;9210;-80
2021/11/13 08:43:39;;;;;;;;;2.00;2.00;;;;;;;;5107716;28;9208;-78
2021/11/13 08:46:07;;;;;;;;;3.00;3.00;;;;;;;;5107716;28;9390;-80
2021/11/13 08:48:34;;;;;;;;;2.00;2.00;;;;;;;;5107752;28;9521;-78
2021/11/13 08:51:02;;;;;;;;;4.00;2.67;;;;;;;;5086655;28;9349;-78
2021/11/13 08:53:31;;;;;;;;;2.00;2.00;;;;;;;;5105873;28;9407;-78
2021/11/13 08:55:58;;;;;;;;;2.00;2.00;;;;;;;;5093979;28;9354;-78
2021/11/13 08:58:26;;;;;;;;;3.00;3.00;;;;;;;;5104205;28;9265;-78
2021/11/13 09:00:56;;;;;;;;;2.00;2.00;;;;;;;;5104946;27;9231;-78
2021/11/13 09:03:26;;;;;;;;;2.00;2.00;;;;;;;;5105691;28;9991;-78
2021/11/13 09:05:55;;;;;;;;;4.00;2.00;;;;;;;;5099625;28;9260;-80
2021/11/13 09:08:23;;;;;;;;;2.00;2.00;;;;;;;;5106080;28;9276;-77
2021/11/13 09:10:53;;;;;;;;;2.33;2.33;;;;;;;;5108314;28;9188;-78
2021/11/13 09:13:21;;;;;;;;;3.00;3.00;;;;;;;;5102816;28;9260;-79
2021/11/13 09:15:49;;;;;;;;;5.33;3.00;;;;;;;;5120007;27;9367;-78
2021/11/13 09:18:17;;;;;;;;;2.00;2.00;;;;;;;;5087763;28;9196;-79
2021/11/13 09:20:44;;;;;;;;;2.67;2.00;;;;;;;;5086949;28;9307;-79
2021/11/13 09:23:14;;;;;;;;;3.67;3.67;;;;;;;;5087662;28;9027;-78
2021/11/13 09:25:42;;;;;;;;;1.00;0.67;;;;;;;;5084700;28;9016;-79
2021/11/13 09:28:10;;;;;;;;;2.67;2.67;;;;;;;;5087334;28;8968;-79
2021/11/13 09:30:38;;;;;;;;;3.00;3.00;;;;;;;;5094433;28;8954;-79
2021/11/13 09:33:06;;;;;;;;;2.33;2.00;;;;;;;;5107933;28;9007;-79
2021/11/13 09:35:34;;;;;;;;;2.00;2.00;;;;;;;;5107109;28;9092;-79
2021/11/13 09:38:02;;;;;;;;;2.00;2.00;;;;;;;;5104768;28;9039;-79
2021/11/13 09:40:31;;;;;;;;;3.00;3.00;;;;;;;;5103613;28;8903;-79
2021/11/13 09:43:00;;;;;;;;;3.00;2.00;;;;;;;;5106417;28;9846;-80
2021/11/13 09:45:30;;;;;;;;;5.75;2.75;;;;;;;;5088217;28;8864;-79
2021/11/13 09:47:59;;;;;;;;;3.50;2.75;;;;;;;;5086355;28;8848;-79
2021/11/13 09:50:30;;;;;;;;;2.00;2.00;;;;;;;;5088381;28;8852;-79
2021/11/13 09:52:58;;;;;;;;;2.00;2.00;;;;;;;;5099265;28;8873;-79
2021/11/13 09:55:26;;;;;;;;;1.75;1.00;;;;;;;;5100199;28;8992;-78
2021/11/13 09:57:54;;;;;;;;;3.00;3.00;;;;;;;;5087011;28;8870;-80
2021/11/13 10:00:24;;;;;;;;;3.75;2.75;;;;;;;;5078341;27;8884;-78
2021/11/13 10:02:54;;;;;;;;;2.50;2.50;;;;;;;;5102062;28;8857;-80
2021/11/13 10:05:21;;;;;;;;;2.25;2.25;;;;;;;;5088038;28;8959;-80
2021/11/13 10:07:49;;;;;;;;;4.25;2.75;;;;;;;;5101384;28;8946;-79
2021/11/13 10:10:28;;;;;;;;;2.25;1.00;;;;;;;;5106405;28;8897;-80
2021/11/13 10:12:55;;;;;;;;;2.25;2.25;;;;;;;;5105486;28;8862;-80
2021/11/13 10:15:28;;;;;;;;;2.25;2.00;;;;;;;;5107028;28;8863;-80
2021/11/13 10:18:10;;;;;;;;;2.50;2.50;;;;;;;;5104111;28;8873;-80
2021/11/13 10:20:38;;;;;;;;;2.00;2.00;;;;;;;;5107076;28;8903;-80
2021/11/13 10:23:06;;;;;;;;;2.25;2.25;;;;;;;;5093619;28;8853;-80
2021/11/13 10:25:33;;;;;;;;;4.25;3.50;;;;;;;;5106809;28;8915;-79
2021/11/13 10:28:08;;;;;;;;;1.00;1.00;;;;;;;;5106369;28;8881;-79
2021/11/13 10:30:35;;;;;;;;;0.00;0.00;;;;;;;;5105202;27;8774;-78
2021/11/13 10:33:03;;;;;;;;;4.00;4.00;;;;;;;;5106545;27;8875;-80
2021/11/13 10:35:42;;;;;;;;;1.50;1.50;;;;;;;;5105566;28;8873;-80
2021/11/13 10:38:15;;;;;;;;;1.00;1.00;;;;;;;;5102704;28;8864;-78
2021/11/13 10:40:56;;;;;;;;;1.00;1.00;;;;;;;;5073020;28;8880;-79
2021/11/13 10:43:33;;;;;;;;;4.25;3.00;;;;;;;;5085230;28;8922;-78
2021/11/13 10:46:04;;;;;;;;;2.50;1.75;;;;;;;;5081595;28;9657;-79
2021/11/13 10:48:36;;;;;;;;;3.75;3.75;;;;;;;;5103375;28;8854;-80
2021/11/13 10:51:19;;;;;;;;;5.25;3.25;;;;;;;;5085933;28;8868;-78
2021/11/13 10:53:48;;;;;;;;;4.00;4.00;;;;;;;;5104848;28;8891;-78
2021/11/13 10:56:17;;;;;;;;;3.75;3.75;;;;;;;;5091447;28;8899;-80
2021/11/13 10:58:54;;;;;;;;;2.25;2.25;;;;;;;;5104887;28;8865;-78
2021/11/13 11:01:37;;;;;;;;;3.00;3.00;;;;;;;;5099686;27;8824;-80
2021/11/13 11:04:11;;;;;;;;;4.00;3.75;;;;;;;;5102787;28;8865;-80
2021/11/13 11:06:41;;;;;;;;;2.00;2.00;;;;;;;;5102918;28;8861;-80
2021/11/13 11:09:23;;;;;;;;;3.25;3.25;;;;;;;;5105562;28;8950;-80
2021/11/13 11:11:52;;;;;;;;;3.25;2.75;;;;;;;;5106214;28;8927;-79
2021/11/13 11:14:21;;;;;;;;;3.50;2.75;;;;;;;;5098831;28;8942;-79
2021/11/13 11:16:52;;;;;;;;;1.75;1.75;;;;;;;;5105810;28;8885;-79
2021/11/13 11:19:21;;;;;;;;;6.00;3.00;;;;;;;;5103456;28;8893;-80
2021/11/13 11:22:06;;;;;;;;;3.75;2.25;;;;;;;;5106290;27;8863;-78
2021/11/13 11:24:39;;;;;;;;;2.75;2.75;;;;;;;;5107068;28;8946;-80
2021/11/13 11:27:13;;;;;;;;;3.75;2.75;;;;;;;;5084241;28;9086;-79
2021/11/13 11:29:51;;;;;;;;;2.75;2.75;;;;;;;;5085039;28;8880;-81
2021/11/13 11:32:23;;;;;;;;;4.75;3.00;;;;;;;;5099470;27;8786;-82
2021/11/13 11:34:52;;;;;;;;;2.00;2.00;;;;;;;;5105490;28;9654;-81
2021/11/13 11:37:23;;;;;;;;;3.50;2.00;;;;;;;;5104553;28;9019;-80
2021/11/13 11:39:53;;;;;;;;;3.00;3.00;;;;;;;;5097229;28;8980;-81
2021/11/13 11:42:21;;;;;;;;;4.25;2.75;;;;;;;;5105187;28;8874;-80
2021/11/13 11:44:50;;;;;;;;;2.50;2.50;;;;;;;;5103287;28;8979;-80
2021/11/13 11:47:19;;;;;;;;;2.00;2.00;;;;;;;;5096560;28;8861;-79
2021/11/13 11:49:49;;;;;;;;;1.00;1.00;;;;;;;;5091979;28;8982;-80
2021/11/13 11:52:18;;;;;;;;;2.50;2.50;;;;;;;;5086421;28;9547;-80
2021/11/13 11:54:49;;;;;;;;;2.00;1.50;;;;;;;;5084290;28;8860;-81
2021/11/13 11:57:17;;;;;;;;;2.50;2.50;;;;;;;;5083973;28;8890;-80
2021/11/13 11:59:45;;;;;;;;;2.00;2.00;;;;;;;;5084769;28;8863;-79
2021/11/13 12:02:15;;;;;;;;;1.75;1.75;;;;;;;;5091608;28;8810;-79
2021/11/13 12:04:44;;;;;;;;;3.00;3.00;;;;;;;;5089717;28;8852;-79
2021/11/13 12:07:13;;;;;;;;;1.50;1.00;;;;;;;;5104077;28;8879;-80
2021/11/13 12:10:05;;;;;;;;;2.25;2.25;;;;;;;;5104871;28;8970;-79
2021/11/13 12:12:32;;;;;;;;;1.50;1.50;;;;;;;;5104694;28;8854;-79
2021/11/13 12:15:19;;;;;;;;;4.25;3.25;;;;;;;;5101622;28;8897;-79
2021/11/13 12:17:48;;;;;;;;;11.33;9.00;;;;;;;;5104745;28;8905;-79
2021/11/13 12:20:33;;;;;;;;;20.00;16.67;;;;;;;;5100161;28;9008;-79
2021/11/13 12:23:10;;;;;;;;;2.75;2.75;;;;;;;;5101838;28;9241;-79
2021/11/13 12:25:43;;;;;;;;;1.00;1.00;;;;;;;;5104337;28;8829;-79
2021/11/13 12:28:17;;;;;;;;;0.50;0.50;;;;;;;;5102294;28;8865;-79
2021/11/13 12:30:51;;;;;;;;;0.00;0.00;;;;;;;;5103916;27;8778;-78
2021/11/13 12:33:41;;;;;;;;;1.00;1.00;;;;;;;;5103527;28;8920;-79
2021/11/13 12:36:11;;;;;;;;;0.00;0.00;;;;;;;;5103978;28;8877;-79
2021/11/13 12:38:43;;;;;;;;;0.00;0.00;;;;;;;;5090076;28;8848;-79
2021/11/13 12:41:13;;;;;;;;;0.00;0.00;;;;;;;;5103471;28;8861;-79
2021/11/13 12:44:06;;;;;;;;;1.25;1.00;;;;;;;;5103864;28;8902;-79
2021/11/13 12:46:36;;;;;;;;;0.25;0.25;;;;;;;;5103568;28;8869;-79
2021/11/13 12:49:50;;;;;;;;;3.00;1.00;;;;;;;;5099167;28;9078;-79
2021/11/13 12:52:23;;;;;;;;;1.50;0.00;;;;;;;;5087038;28;8877;-79
2021/11/13 12:55:16;;;;;;;;;1.00;0.00;;;;;;;;5094721;28;8889;-79
2021/11/13 12:57:46;;;;;;;;;1.25;0.25;;;;;;;;5083504;28;8968;-78
2021/11/13 13:00:19;;;;;;;;;0.00;0.00;;;;;;;;5095227;28;8894;-78
2021/11/13 13:02:47;;;;;;;;;1.25;0.00;;;;;;;;5082965;28;8891;-78
2021/11/13 13:05:17;;;;;;;;;0.00;0.00;;;;;;;;5091114;28;8861;-78
2021/11/13 13:07:53;;;;;;;;;1.50;0.00;;;;;;;;5103006;28;8968;-78
2021/11/13 13:10:23;;;;;;;;;0.75;0.75;;;;;;;;5103276;28;8892;-79
2021/11/13 13:13:01;;;;;;;;;0.00;0.00;;;;;;;;5090257;28;8859;-78
2021/11/13 13:15:29;;;;;;;;;0.00;0.00;;;;;;;;5103670;28;9731;-79
2021/11/13 13:17:58;;;;;;;;;0.00;0.00;;;;;;;;5104011;28;8849;-78
2021/11/13 13:20:29;;;;;;;;;0.00;0.00;;;;;;;;5103591;28;8918;-79
2021/11/13 13:23:01;;;;;;;;;1.50;0.00;;;;;;;;5104074;28;8865;-79
2021/11/13 13:25:30;;;;;;;;;0.00;0.00;;;;;;;;5102941;28;8876;-80
2021/11/13 13:28:00;;;;;;;;;0.00;0.00;;;;;;;;5104833;28;8861;-79
2021/11/13 13:30:27;;;;;;;;;0.00;0.00;;;;;;;;5100705;27;8750;-79
2021/11/13 13:32:56;;;;;;;;;2.50;0.00;;;;;;;;5106836;28;8877;-79
2021/11/13 13:35:24;;;;;;;;;0.00;0.00;;;;;;;;5107553;28;8869;-79
2021/11/13 13:37:54;;;;;;;;;0.00;0.00;;;;;;;;5104861;28;8878;-78
2021/11/13 13:40:25;;;;;;;;;2.00;0.00;;;;;;;;5101470;28;8873;-79
2021/11/13 13:42:53;;;;;;;;;0.00;0.00;;;;;;;;5106583;28;8898;-79
2021/11/13 13:45:24;;;;;;;;;1.00;1.00;;;;;;;;5105664;28;8878;-78
2021/11/13 13:47:54;;;;;;;;;0.25;0.25;;;;;;;;5107065;28;8954;-79
2021/11/13 13:50:22;;;;;;;;;0.00;0.00;;;;;;;;5090548;28;8868;-78
2021/11/13 13:52:50;;;;;;;;;0.00;0.00;;;;;;;;5098816;28;8849;-79
2021/11/13 13:55:19;;;;;;;;;0.00;0.00;;;;;;;;5098662;28;8869;-78
2021/11/13 13:58:01;;;;;;;;;0.25;0.25;;;;;;;;5085875;28;8876;-79
2021/11/13 14:00:30;;;;;;;;;0.00;0.00;;;;;;;;5084045;28;8792;-78
2021/11/13 14:02:58;;;;;;;;;1.00;0.00;;;;;;;;5092943;28;9737;-78
2021/11/13 14:05:28;;;;;;;;;0.00;0.00;;;;;;;;5104858;28;8855;-78
2021/11/13 14:08:05;;;;;;;;;0.00;0.00;;;;;;;;5083020;28;8862;-78
2021/11/13 14:10:41;;;;;;;;;0.00;0.00;;;;;;;;5106963;28;8858;-78
2021/11/13 14:13:08;;;;;;;;;0.00;0.00;;;;;;;;5106027;28;8869;-79
2021/11/13 14:15:38;;;;;;;;;1.00;1.00;;;;;;;;5106654;28;8873;-79
2021/11/13 14:18:08;;;;;;;;;2.00;0.00;;;;;;;;5106285;28;8895;-79
2021/11/13 14:20:38;;;;;;;;;0.00;0.00;;;;;;;;5104829;28;8861;-79
2021/11/13 14:23:09;;;;;;;;;0.00;0.00;;;;;;;;5106787;28;9667;-79
2021/11/13 14:25:43;;;;;;;;;0.00;0.00;;;;;;;;5104651;28;8957;-79
2021/11/13 14:28:11;;;;;;;;;1.00;0.00;;;;;;;;5081144;28;8848;-76
2021/11/13 14:30:43;;;;;;;;;0.00;0.00;;;;;;;;5083204;28;8889;-79
2021/11/13 14:33:10;;;;;;;;;0.00;0.00;;;;;;;;5091576;28;8864;-86
2021/11/13 14:35:40;;;;;;;;;0.00;0.00;;;;;;;;5093555;28;8898;-76
2021/11/13 14:38:09;;;;;;;;;0.00;0.00;;;;;;;;5083567;28;8861;-78
2021/11/13 14:40:36;;;;;;;;;0.00;0.00;;;;;;;;5088317;28;8836;-85
2021/11/13 14:43:04;;;;;;;;;0.00;0.00;;;;;;;;5087974;28;8991;-84
2021/11/13 14:45:34;;;;;;;;;0.00;0.00;;;;;;;;5084945;28;8874;-83
2021/11/13 14:48:03;;;;;;;;;1.50;0.00;;;;;;;;5086095;28;9622;-77
2021/11/13 14:50:33;;;;;;;;;0.00;0.00;;;;;;;;5088234;28;8890;-80
2021/11/13 14:53:04;;;;;;;;;0.50;0.50;;;;;;;;5085211;28;8868;-81
2021/11/13 14:55:37;;;;;;;;;0.00;0.00;;;;;;;;5084150;28;8949;-84
2021/11/13 14:58:07;;;;;;;;;2.00;0.00;;;;;;;;5127054;27;8834;-81
2021/11/13 15:00:38;;;;;;;;;0.00;0.00;;;;;;;;5082938;28;8800;-80